sensor_id;sensor_type;location;lat;lon;timestamp;pressure;altitude;pressure_sealevel;temperature;humidity
62705;BME280;48767;50.754;8.772;2022-08-07T00:01:19;100234.94;;;9.46;nan
62705;BME280;48767;50.754;8.772;2022-08-07T00:03:47;100241.34;;;9.34;nan
62705;BME280;48767;50.754;8.772;2022-08-07T00:06:13;100233.16;;;9.25;nan
62705;BME280;48767;50.754;8.772;2022-08-07T00:08:40;100220.94;;;9.32;nan
62705;BME280;48767;50.754;8.772;2022-08-07T00:11:07;100235.03;;;9.24;nan
62705;BME280;48767;50.754;8.772;2022-08-07T00:13:33;100232.94;;;9.28;nan
62705;BME280;48767;50.754;8.772;2022-08-07T00:16:01;100230.25;;;9.28;nan
62705;BME280;48767;50.754;8.772;2022-08-07T00:18:28;100230.44;;;9.04;nan
62705;BME280;48767;50.754;8.772;2022-08-07T00:20:59;100230.03;;;9.09;nan
62705;BME280;48767;50.754;8.772;2022-08-07T00:23:25;100236.28;;;9.09;nan
62705;BME280;48767;50.754;8.772;2022-08-07T00:25:52;100226.38;;;9.21;nan
62705;BME280;48767;50.754;8.772;2022-08-07T00:28:19;100232.69;;;9.20;nan
62705;BME280;48767;50.754;8.772;2022-08-07T00:30:46;100225.41;;;9.11;nan
62705;BME280;48767;50.754;8.772;2022-08-07T00:33:12;100220.91;;;9.00;nan
62705;BME280;48767;50.754;8.772;2022-08-07T00:35:39;100222.63;;;9.01;nan
62705;BME280;48767;50.754;8.772;2022-08-07T00:38:07;100225.19;;;9.03;nan
62705;BME280;48767;50.754;8.772;2022-08-07T00:40:33;100215.97;;;8.85;nan
62705;BME280;48767;50.754;8.772;2022-08-07T00:43:00;100214.72;;;9.00;nan
62705;BME280;48767;50.754;8.772;2022-08-07T00:45:26;100208.72;;;8.96;nan
62705;BME280;48767;50.754;8.772;2022-08-07T00:47:53;100210.69;;;8.94;nan
62705;BME280;48767;50.754;8.772;2022-08-07T00:50:20;100204.91;;;8.99;nan
62705;BME280;48767;50.754;8.772;2022-08-07T00:52:46;100212.13;;;8.98;nan
62705;BME280;48767;50.754;8.772;2022-08-07T00:55:14;100210.16;;;9.00;nan
62705;BME280;48767;50.754;8.772;2022-08-07T00:57:42;100214.28;;;9.15;nan
62705;BME280;48767;50.754;8.772;2022-08-07T01:00:11;100207.16;;;8.83;nan
62705;BME280;48767;50.754;8.772;2022-08-07T01:02:40;100213.03;;;8.77;nan
62705;BME280;48767;50.754;8.772;2022-08-07T01:05:10;100204.25;;;8.75;nan
62705;BME280;48767;50.754;8.772;2022-08-07T01:07:37;100209.25;;;8.68;nan
62705;BME280;48767;50.754;8.772;2022-08-07T01:10:04;100204.38;;;8.62;nan
62705;BME280;48767;50.754;8.772;2022-08-07T01:12:33;100202.44;;;8.64;nan
62705;BME280;48767;50.754;8.772;2022-08-07T01:15:00;100210.00;;;8.59;nan
62705;BME280;48767;50.754;8.772;2022-08-07T01:17:27;100204.13;;;8.54;nan
62705;BME280;48767;50.754;8.772;2022-08-07T01:19:58;100199.38;;;8.69;nan
62705;BME280;48767;50.754;8.772;2022-08-07T01:22:28;100198.63;;;8.78;nan
62705;BME280;48767;50.754;8.772;2022-08-07T01:24:55;100196.44;;;8.61;nan
62705;BME280;48767;50.754;8.772;2022-08-07T01:27:23;100197.66;;;8.57;nan
62705;BME280;48767;50.754;8.772;2022-08-07T01:29:50;100195.50;;;8.51;nan
62705;BME280;48767;50.754;8.772;2022-08-07T01:32:16;100194.38;;;8.53;nan
62705;BME280;48767;50.754;8.772;2022-08-07T01:34:43;100193.41;;;8.43;nan
62705;BME280;48767;50.754;8.772;2022-08-07T01:37:11;100202.56;;;8.30;nan
62705;BME280;48767;50.754;8.772;2022-08-07T01:39:42;100198.06;;;8.52;nan
62705;BME280;48767;50.754;8.772;2022-08-07T01:42:09;100191.72;;;8.42;nan
62705;BME280;48767;50.754;8.772;2022-08-07T01:44:36;100185.59;;;8.29;nan
62705;BME280;48767;50.754;8.772;2022-08-07T01:47:03;100195.25;;;8.21;nan
62705;BME280;48767;50.754;8.772;2022-08-07T01:49:29;100198.69;;;8.23;nan
62705;BME280;48767;50.754;8.772;2022-08-07T01:51:57;100198.06;;;8.30;nan
62705;BME280;48767;50.754;8.772;2022-08-07T01:54:26;100205.38;;;8.28;nan
62705;BME280;48767;50.754;8.772;2022-08-07T01:56:59;100196.09;;;8.32;nan
62705;BME280;48767;50.754;8.772;2022-08-07T01:59:33;100200.50;;;8.33;nan
62705;BME280;48767;50.754;8.772;2022-08-07T02:02:04;100199.50;;;8.34;nan
62705;BME280;48767;50.754;8.772;2022-08-07T02:04:38;100204.28;;;8.31;nan
62705;BME280;48767;50.754;8.772;2022-08-07T02:07:07;100196.31;;;8.18;nan
62705;BME280;48767;50.754;8.772;2022-08-07T02:09:35;100198.88;;;8.09;nan
62705;BME280;48767;50.754;8.772;2022-08-07T02:12:04;100195.41;;;7.85;nan
62705;BME280;48767;50.754;8.772;2022-08-07T02:14:43;100200.44;;;7.89;nan
62705;BME280;48767;50.754;8.772;2022-08-07T02:17:12;100206.53;;;7.91;nan
62705;BME280;48767;50.754;8.772;2022-08-07T02:19:41;100200.69;;;7.97;nan
62705;BME280;48767;50.754;8.772;2022-08-07T02:22:10;100197.97;;;7.86;nan
62705;BME280;48767;50.754;8.772;2022-08-07T02:24:39;100196.19;;;7.98;nan
62705;BME280;48767;50.754;8.772;2022-08-07T02:27:09;100199.22;;;7.93;nan
62705;BME280;48767;50.754;8.772;2022-08-07T02:29:38;100193.31;;;7.77;nan
62705;BME280;48767;50.754;8.772;2022-08-07T02:32:07;100200.16;;;7.81;nan
62705;BME280;48767;50.754;8.772;2022-08-07T02:34:35;100197.84;;;7.77;nan
62705;BME280;48767;50.754;8.772;2022-08-07T02:37:03;100197.97;;;7.75;nan
62705;BME280;48767;50.754;8.772;2022-08-07T02:39:33;100194.91;;;7.69;nan
62705;BME280;48767;50.754;8.772;2022-08-07T02:42:01;100197.69;;;7.67;nan
62705;BME280;48767;50.754;8.772;2022-08-07T02:44:30;100196.47;;;7.60;nan
62705;BME280;48767;50.754;8.772;2022-08-07T02:46:59;100197.47;;;7.70;nan
62705;BME280;48767;50.754;8.772;2022-08-07T02:49:25;100195.50;;;7.72;nan
62705;BME280;48767;50.754;8.772;2022-08-07T02:51:54;100198.66;;;7.66;nan
62705;BME280;48767;50.754;8.772;2022-08-07T02:54:25;100194.16;;;7.56;nan
62705;BME280;48767;50.754;8.772;2022-08-07T02:56:55;100198.34;;;7.71;nan
62705;BME280;48767;50.754;8.772;2022-08-07T02:59:26;100190.09;;;7.50;nan
62705;BME280;48767;50.754;8.772;2022-08-07T03:01:55;100191.44;;;7.45;nan
62705;BME280;48767;50.754;8.772;2022-08-07T03:04:23;100188.13;;;7.41;nan
62705;BME280;48767;50.754;8.772;2022-08-07T03:06:51;100187.38;;;7.39;nan
62705;BME280;48767;50.754;8.772;2022-08-07T03:09:19;100187.59;;;7.36;nan
62705;BME280;48767;50.754;8.772;2022-08-07T03:11:47;100190.28;;;7.36;nan
62705;BME280;48767;50.754;8.772;2022-08-07T03:14:14;100186.78;;;7.36;nan
62705;BME280;48767;50.754;8.772;2022-08-07T03:16:41;100189.22;;;7.15;nan
62705;BME280;48767;50.754;8.772;2022-08-07T03:19:09;100192.66;;;7.17;nan
62705;BME280;48767;50.754;8.772;2022-08-07T03:21:36;100186.78;;;7.36;nan
62705;BME280;48767;50.754;8.772;2022-08-07T03:24:03;100188.63;;;7.46;nan
62705;BME280;48767;50.754;8.772;2022-08-07T03:26:31;100185.69;;;7.38;nan
62705;BME280;48767;50.754;8.772;2022-08-07T03:29:01;100188.63;;;7.46;nan
62705;BME280;48767;50.754;8.772;2022-08-07T03:31:28;100183.72;;;7.40;nan
62705;BME280;48767;50.754;8.772;2022-08-07T03:33:57;100183.25;;;7.46;nan
62705;BME280;48767;50.754;8.772;2022-08-07T03:36:27;100175.03;;;7.26;nan
62705;BME280;48767;50.754;8.772;2022-08-07T03:38:56;100173.94;;;7.28;nan
62705;BME280;48767;50.754;8.772;2022-08-07T03:41:24;100173.69;;;7.31;nan
62705;BME280;48767;50.754;8.772;2022-08-07T03:43:51;100178.69;;;7.25;nan
62705;BME280;48767;50.754;8.772;2022-08-07T03:46:20;100171.84;;;7.21;nan
62705;BME280;48767;50.754;8.772;2022-08-07T03:48:48;100170.63;;;7.14;nan
62705;BME280;48767;50.754;8.772;2022-08-07T03:51:14;100171.25;;;7.17;nan
62705;BME280;48767;50.754;8.772;2022-08-07T03:53:43;100176.81;;;7.14;nan
62705;BME280;48767;50.754;8.772;2022-08-07T03:56:10;100177.28;;;7.08;nan
62705;BME280;48767;50.754;8.772;2022-08-07T03:58:37;100172.72;;;7.21;nan
62705;BME280;48767;50.754;8.772;2022-08-07T04:01:04;100173.31;;;6.90;nan
62705;BME280;48767;50.754;8.772;2022-08-07T04:03:31;100184.19;;;7.00;nan
62705;BME280;48767;50.754;8.772;2022-08-07T04:05:58;100179.03;;;6.97;nan
62705;BME280;48767;50.754;8.772;2022-08-07T04:08:25;100169.13;;;7.10;nan
62705;BME280;48767;50.754;8.772;2022-08-07T04:10:54;100177.91;;;7.12;nan
62705;BME280;48767;50.754;8.772;2022-08-07T04:13:22;100179.84;;;7.10;nan
62705;BME280;48767;50.754;8.772;2022-08-07T04:15:49;100185.22;;;7.10;nan
62705;BME280;48767;50.754;8.772;2022-08-07T04:18:16;100181.03;;;7.29;nan
62705;BME280;48767;50.754;8.772;2022-08-07T04:20:43;100177.69;;;7.15;nan
62705;BME280;48767;50.754;8.772;2022-08-07T04:23:10;100176.13;;;7.23;nan
62705;BME280;48767;50.754;8.772;2022-08-07T04:25:37;100175.59;;;7.42;nan
62705;BME280;48767;50.754;8.772;2022-08-07T04:28:07;100176.44;;;7.42;nan
62705;BME280;48767;50.754;8.772;2022-08-07T04:30:35;100183.03;;;7.49;nan
62705;BME280;48767;50.754;8.772;2022-08-07T04:33:05;100186.44;;;7.51;nan
62705;BME280;48767;50.754;8.772;2022-08-07T04:35:32;100196.63;;;7.35;nan
62705;BME280;48767;50.754;8.772;2022-08-07T04:37:58;100193.03;;;7.47;nan
62705;BME280;48767;50.754;8.772;2022-08-07T04:40:25;100201.81;;;7.49;nan
62705;BME280;48767;50.754;8.772;2022-08-07T04:42:52;100196.69;;;7.57;nan
62705;BME280;48767;50.754;8.772;2022-08-07T04:45:20;100211.31;;;7.53;nan
62705;BME280;48767;50.754;8.772;2022-08-07T04:47:55;100211.19;;;7.55;nan
62705;BME280;48767;50.754;8.772;2022-08-07T04:50:33;100217.44;;;7.66;nan
62705;BME280;48767;50.754;8.772;2022-08-07T04:53:04;100212.00;;;7.79;nan
62705;BME280;48767;50.754;8.772;2022-08-07T04:55:38;100220.41;;;7.74;nan
62705;BME280;48767;50.754;8.772;2022-08-07T04:58:16;100225.19;;;7.82;nan
62705;BME280;48767;50.754;8.772;2022-08-07T05:00:49;100213.09;;;7.87;nan
62705;BME280;48767;50.754;8.772;2022-08-07T05:03:23;100219.72;;;7.94;nan
62705;BME280;48767;50.754;8.772;2022-08-07T05:06:00;100214.97;;;8.09;nan
62705;BME280;48767;50.754;8.772;2022-08-07T05:08:36;100212.41;;;8.18;nan
62705;BME280;48767;50.754;8.772;2022-08-07T05:11:09;100214.38;;;8.16;nan
62705;BME280;48767;50.754;8.772;2022-08-07T05:13:44;100212.44;;;8.29;nan
62705;BME280;48767;50.754;8.772;2022-08-07T05:16:15;100211.22;;;8.22;nan
62705;BME280;48767;50.754;8.772;2022-08-07T05:18:47;100213.81;;;8.35;nan
62705;BME280;48767;50.754;8.772;2022-08-07T05:21:16;100211.97;;;8.35;nan
62705;BME280;48767;50.754;8.772;2022-08-07T05:23:46;100212.09;;;8.45;nan
62705;BME280;48767;50.754;8.772;2022-08-07T05:26:16;100215.63;;;8.67;nan
62705;BME280;48767;50.754;8.772;2022-08-07T05:28:44;100207.75;;;8.86;nan
62705;BME280;48767;50.754;8.772;2022-08-07T05:31:11;100210.13;;;9.11;nan
62705;BME280;48767;50.754;8.772;2022-08-07T05:33:41;100210.91;;;9.34;nan
62705;BME280;48767;50.754;8.772;2022-08-07T05:36:09;100216.00;;;9.48;nan
62705;BME280;48767;50.754;8.772;2022-08-07T05:38:38;100218.97;;;9.65;nan
62705;BME280;48767;50.754;8.772;2022-08-07T05:41:06;100223.03;;;9.80;nan
62705;BME280;48767;50.754;8.772;2022-08-07T05:43:34;100218.72;;;10.09;nan
62705;BME280;48767;50.754;8.772;2022-08-07T05:46:01;100221.66;;;10.27;nan
62705;BME280;48767;50.754;8.772;2022-08-07T05:48:28;100222.47;;;10.48;nan
62705;BME280;48767;50.754;8.772;2022-08-07T05:50:58;100217.19;;;10.76;nan
62705;BME280;48767;50.754;8.772;2022-08-07T05:53:25;100218.81;;;10.98;nan
62705;BME280;48767;50.754;8.772;2022-08-07T05:55:52;100222.25;;;11.28;nan
62705;BME280;48767;50.754;8.772;2022-08-07T05:58:19;100223.72;;;11.61;nan
62705;BME280;48767;50.754;8.772;2022-08-07T06:00:47;100224.81;;;11.96;nan
62705;BME280;48767;50.754;8.772;2022-08-07T06:03:17;100218.28;;;12.08;nan
62705;BME280;48767;50.754;8.772;2022-08-07T06:05:45;100222.47;;;12.39;nan
62705;BME280;48767;50.754;8.772;2022-08-07T06:08:15;100225.59;;;12.71;nan
62705;BME280;48767;50.754;8.772;2022-08-07T06:10:42;100213.13;;;12.97;nan
62705;BME280;48767;50.754;8.772;2022-08-07T06:13:09;100218.56;;;12.88;nan
62705;BME280;48767;50.754;8.772;2022-08-07T06:15:36;100211.56;;;13.39;nan
62705;BME280;48767;50.754;8.772;2022-08-07T06:18:05;100207.31;;;13.72;nan
62705;BME280;48767;50.754;8.772;2022-08-07T06:20:34;100202.41;;;14.18;nan
62705;BME280;48767;50.754;8.772;2022-08-07T06:23:01;100206.84;;;14.45;nan
62705;BME280;48767;50.754;8.772;2022-08-07T06:25:31;100202.44;;;14.77;nan
62705;BME280;48767;50.754;8.772;2022-08-07T06:28:01;100202.88;;;14.98;nan
62705;BME280;48767;50.754;8.772;2022-08-07T06:30:28;100196.25;;;15.50;nan
62705;BME280;48767;50.754;8.772;2022-08-07T06:32:54;100188.78;;;15.60;nan
62705;BME280;48767;50.754;8.772;2022-08-07T06:35:21;100197.28;;;15.97;nan
62705;BME280;48767;50.754;8.772;2022-08-07T06:37:47;100193.38;;;16.40;nan
62705;BME280;48767;50.754;8.772;2022-08-07T06:40:14;100191.25;;;16.66;nan
62705;BME280;48767;50.754;8.772;2022-08-07T06:42:44;100183.09;;;17.04;nan
62705;BME280;48767;50.754;8.772;2022-08-07T06:45:13;100178.34;;;17.29;nan
62705;BME280;48767;50.754;8.772;2022-08-07T06:47:41;100177.59;;;17.88;nan
62705;BME280;48767;50.754;8.772;2022-08-07T06:50:08;100174.56;;;17.60;nan
62705;BME280;48767;50.754;8.772;2022-08-07T06:52:36;100170.59;;;17.71;nan
62705;BME280;48767;50.754;8.772;2022-08-07T06:55:05;100172.28;;;18.09;nan
62705;BME280;48767;50.754;8.772;2022-08-07T06:57:36;100179.97;;;17.68;nan
62705;BME280;48767;50.754;8.772;2022-08-07T07:00:05;100162.31;;;18.01;nan
62705;BME280;48767;50.754;8.772;2022-08-07T07:02:33;100167.38;;;18.41;nan
62705;BME280;48767;50.754;8.772;2022-08-07T07:05:02;100168.56;;;18.24;nan
62705;BME280;48767;50.754;8.772;2022-08-07T07:07:28;100176.69;;;18.32;nan
62705;BME280;48767;50.754;8.772;2022-08-07T07:09:55;100168.25;;;18.85;nan
62705;BME280;48767;50.754;8.772;2022-08-07T07:12:28;100163.91;;;18.33;nan
62705;BME280;48767;50.754;8.772;2022-08-07T07:14:59;100166.53;;;18.04;nan
62705;BME280;48767;50.754;8.772;2022-08-07T07:17:33;100168.13;;;18.35;nan
62705;BME280;48767;50.754;8.772;2022-08-07T07:20:03;100166.94;;;18.01;nan
62705;BME280;48767;50.754;8.772;2022-08-07T07:22:31;100158.34;;;17.89;nan
62705;BME280;48767;50.754;8.772;2022-08-07T07:24:59;100161.03;;;18.26;nan
62705;BME280;48767;50.754;8.772;2022-08-07T07:27:28;100156.00;;;18.52;nan
62705;BME280;48767;50.754;8.772;2022-08-07T07:29:59;100157.88;;;18.95;nan
62705;BME280;48767;50.754;8.772;2022-08-07T07:32:29;100158.56;;;19.18;nan
62705;BME280;48767;50.754;8.772;2022-08-07T07:35:01;100158.84;;;18.44;nan
62705;BME280;48767;50.754;8.772;2022-08-07T07:37:29;100156.06;;;19.02;nan
62705;BME280;48767;50.754;8.772;2022-08-07T07:39:58;100155.75;;;18.62;nan
62705;BME280;48767;50.754;8.772;2022-08-07T07:42:25;100149.00;;;19.22;nan
62705;BME280;48767;50.754;8.772;2022-08-07T07:44:54;100144.72;;;18.55;nan
62705;BME280;48767;50.754;8.772;2022-08-07T07:47:22;100146.41;;;19.21;nan
62705;BME280;48767;50.754;8.772;2022-08-07T07:49:52;100144.16;;;20.08;nan
62705;BME280;48767;50.754;8.772;2022-08-07T07:52:20;100140.19;;;20.72;nan
62705;BME280;48767;50.754;8.772;2022-08-07T07:54:49;100151.31;;;19.61;nan
62705;BME280;48767;50.754;8.772;2022-08-07T07:57:16;100143.66;;;19.77;nan
62705;BME280;48767;50.754;8.772;2022-08-07T07:59:45;100133.63;;;20.67;nan
62705;BME280;48767;50.754;8.772;2022-08-07T08:02:14;100130.75;;;21.22;nan
62705;BME280;48767;50.754;8.772;2022-08-07T08:04:42;100132.75;;;21.60;nan
62705;BME280;48767;50.754;8.772;2022-08-07T08:07:12;100126.78;;;21.44;nan
62705;BME280;48767;50.754;8.772;2022-08-07T08:09:39;100123.09;;;21.84;nan
62705;BME280;48767;50.754;8.772;2022-08-07T08:12:07;100135.06;;;19.80;nan
62705;BME280;48767;50.754;8.772;2022-08-07T08:14:35;100125.31;;;21.41;nan
62705;BME280;48767;50.754;8.772;2022-08-07T08:17:02;100135.34;;;19.43;nan
62705;BME280;48767;50.754;8.772;2022-08-07T08:19:30;100120.44;;;19.67;nan
62705;BME280;48767;50.754;8.772;2022-08-07T08:21:59;100112.00;;;21.25;nan
62705;BME280;48767;50.754;8.772;2022-08-07T08:24:48;100106.41;;;22.11;nan
62705;BME280;48767;50.754;8.772;2022-08-07T08:27:36;100109.78;;;22.13;nan
62705;BME280;48767;50.754;8.772;2022-08-07T08:30:05;100107.84;;;22.33;nan
62705;BME280;48767;50.754;8.772;2022-08-07T08:32:36;100112.69;;;21.66;nan
62705;BME280;48767;50.754;8.772;2022-08-07T08:35:06;100112.31;;;21.69;nan
62705;BME280;48767;50.754;8.772;2022-08-07T08:37:35;100113.00;;;21.05;nan
62705;BME280;48767;50.754;8.772;2022-08-07T08:40:06;100097.13;;;22.19;nan
62705;BME280;48767;50.754;8.772;2022-08-07T08:42:38;100095.13;;;23.15;nan
62705;BME280;48767;50.754;8.772;2022-08-07T08:45:13;100088.88;;;23.70;nan
62705;BME280;48767;50.754;8.772;2022-08-07T08:47:51;100090.22;;;23.62;nan
62705;BME280;48767;50.754;8.772;2022-08-07T08:50:23;100088.44;;;23.73;nan
62705;BME280;48767;50.754;8.772;2022-08-07T08:52:58;100092.72;;;22.94;nan
62705;BME280;48767;50.754;8.772;2022-08-07T08:55:34;100094.56;;;23.44;nan
62705;BME280;48767;50.754;8.772;2022-08-07T08:58:05;100078.59;;;23.84;nan
62705;BME280;48767;50.754;8.772;2022-08-07T09:00:39;100077.78;;;23.83;nan
62705;BME280;48767;50.754;8.772;2022-08-07T09:03:14;100079.31;;;24.04;nan
62705;BME280;48767;50.754;8.772;2022-08-07T09:05:49;100075.72;;;24.04;nan
62705;BME280;48767;50.754;8.772;2022-08-07T09:08:20;100071.91;;;24.23;nan
62705;BME280;48767;50.754;8.772;2022-08-07T09:10:59;100062.56;;;24.48;nan
62705;BME280;48767;50.754;8.772;2022-08-07T09:13:32;100065.06;;;25.04;nan
62705;BME280;48767;50.754;8.772;2022-08-07T09:16:04;100055.19;;;24.96;nan
62705;BME280;48767;50.754;8.772;2022-08-07T09:18:42;100061.38;;;25.28;nan
62705;BME280;48767;50.754;8.772;2022-08-07T09:21:28;100066.88;;;24.20;nan
62705;BME280;48767;50.754;8.772;2022-08-07T09:24:02;100063.75;;;23.92;nan
62705;BME280;48767;50.754;8.772;2022-08-07T09:26:39;100053.00;;;23.83;nan
62705;BME280;48767;50.754;8.772;2022-08-07T09:29:19;100061.66;;;23.63;nan
62705;BME280;48767;50.754;8.772;2022-08-07T09:31:55;100067.72;;;22.96;nan
62705;BME280;48767;50.754;8.772;2022-08-07T09:34:27;100044.38;;;24.23;nan
62705;BME280;48767;50.754;8.772;2022-08-07T09:37:00;100043.97;;;24.80;nan
62705;BME280;48767;50.754;8.772;2022-08-07T09:39:44;100037.34;;;24.99;nan
62705;BME280;48767;50.754;8.772;2022-08-07T09:42:29;100038.94;;;23.42;nan
62705;BME280;48767;50.754;8.772;2022-08-07T09:45:06;100037.69;;;24.19;nan
62705;BME280;48767;50.754;8.772;2022-08-07T09:47:43;100029.81;;;25.06;nan
62705;BME280;48767;50.754;8.772;2022-08-07T09:50:19;100017.97;;;25.05;nan
62705;BME280;48767;50.754;8.772;2022-08-07T09:52:50;100016.88;;;24.59;nan
62705;BME280;48767;50.754;8.772;2022-08-07T09:55:20;100018.66;;;25.83;nan
62705;BME280;48767;50.754;8.772;2022-08-07T10:01:07;100004.56;;;26.02;nan
62705;BME280;48767;50.754;8.772;2022-08-07T10:03:48;100004.13;;;26.45;nan
62705;BME280;48767;50.754;8.772;2022-08-07T10:06:34;60546.53;;;-140.79;100.00
62705;BME280;48767;50.754;8.772;2022-08-07T10:12:18;60546.53;;;-140.79;100.00
62705;BME280;48767;50.754;8.772;2022-08-07T10:15:04;60546.53;;;-140.79;100.00
62705;BME280;48767;50.754;8.772;2022-08-07T10:18:19;60546.53;;;-140.79;100.00
62705;BME280;48767;50.754;8.772;2022-08-07T10:21:00;60546.53;;;-140.79;100.00
62705;BME280;48767;50.754;8.772;2022-08-07T10:26:35;60546.53;;;-140.79;100.00
62705;BME280;48767;50.754;8.772;2022-08-07T10:29:24;60546.53;;;-140.79;100.00
62705;BME280;48767;50.754;8.772;2022-08-07T10:32:16;60546.53;;;-140.79;100.00
62705;BME280;48767;50.754;8.772;2022-08-07T10:35:03;60546.53;;;-140.79;100.00
62705;BME280;48767;50.754;8.772;2022-08-07T10:37:40;60546.53;;;-140.79;100.00
62705;BME280;48767;50.754;8.772;2022-08-07T10:40:16;60546.53;;;-140.79;100.00
62705;BME280;48767;50.754;8.772;2022-08-07T10:42:56;60546.53;;;-140.79;100.00
62705;BME280;48767;50.754;8.772;2022-08-07T10:45:26;60546.53;;;-140.79;100.00
62705;BME280;48767;50.754;8.772;2022-08-07T10:48:04;60546.53;;;-140.79;100.00
62705;BME280;48767;50.754;8.772;2022-08-07T10:50:37;60546.53;;;-140.79;100.00
62705;BME280;48767;50.754;8.772;2022-08-07T10:53:10;60546.53;;;-140.79;100.00
62705;BME280;48767;50.754;8.772;2022-08-07T10:55:44;60546.53;;;-140.79;100.00
62705;BME280;48767;50.754;8.772;2022-08-07T10:58:29;60546.53;;;-140.79;100.00
62705;BME280;48767;50.754;8.772;2022-08-07T11:01:16;60546.53;;;-140.79;100.00
62705;BME280;48767;50.754;8.772;2022-08-07T11:03:54;60546.53;;;-140.79;100.00
62705;BME280;48767;50.754;8.772;2022-08-07T11:06:25;60546.53;;;-140.79;100.00
62705;BME280;48767;50.754;8.772;2022-08-07T11:08:59;60546.53;;;-140.79;100.00
62705;BME280;48767;50.754;8.772;2022-08-07T11:11:32;60546.53;;;-140.79;100.00
62705;BME280;48767;50.754;8.772;2022-08-07T11:14:03;60546.53;;;-140.79;100.00
62705;BME280;48767;50.754;8.772;2022-08-07T11:16:35;60546.53;;;-140.79;100.00
62705;BME280;48767;50.754;8.772;2022-08-07T11:19:09;60546.53;;;-140.79;100.00
62705;BME280;48767;50.754;8.772;2022-08-07T11:21:45;60546.53;;;-140.79;100.00
62705;BME280;48767;50.754;8.772;2022-08-07T11:24:19;60546.53;;;-140.79;100.00
62705;BME280;48767;50.754;8.772;2022-08-07T11:26:52;60546.53;;;-140.79;100.00
62705;BME280;48767;50.754;8.772;2022-08-07T11:29:26;60546.53;;;-140.79;100.00
62705;BME280;48767;50.754;8.772;2022-08-07T11:31:59;60546.53;;;-140.79;100.00
62705;BME280;48767;50.754;8.772;2022-08-07T11:34:35;60546.53;;;-140.79;100.00
62705;BME280;48767;50.754;8.772;2022-08-07T11:37:08;60546.53;;;-140.79;100.00
62705;BME280;48767;50.754;8.772;2022-08-07T11:39:59;60546.53;;;-140.79;100.00
62705;BME280;48767;50.754;8.772;2022-08-07T11:42:39;60546.53;;;-140.79;100.00
62705;BME280;48767;50.754;8.772;2022-08-07T11:45:14;60546.53;;;-140.79;100.00
62705;BME280;48767;50.754;8.772;2022-08-07T11:47:54;60546.53;;;-140.79;100.00
62705;BME280;48767;50.754;8.772;2022-08-07T11:50:46;60546.53;;;-140.79;100.00
62705;BME280;48767;50.754;8.772;2022-08-07T11:53:19;60546.53;;;-140.79;100.00
62705;BME280;48767;50.754;8.772;2022-08-07T11:55:59;60546.53;;;-140.79;100.00
62705;BME280;48767;50.754;8.772;2022-08-07T11:58:37;60546.53;;;-140.79;100.00
62705;BME280;48767;50.754;8.772;2022-08-07T12:01:13;60546.53;;;-140.79;100.00
62705;BME280;48767;50.754;8.772;2022-08-07T12:03:49;60546.53;;;-140.79;100.00
62705;BME280;48767;50.754;8.772;2022-08-07T12:06:33;60546.53;;;-140.79;100.00
62705;BME280;48767;50.754;8.772;2022-08-07T12:09:07;60546.53;;;-140.79;100.00
62705;BME280;48767;50.754;8.772;2022-08-07T12:11:38;60546.53;;;-140.79;100.00
62705;BME280;48767;50.754;8.772;2022-08-07T12:14:10;60546.53;;;-140.79;100.00
62705;BME280;48767;50.754;8.772;2022-08-07T12:16:43;60546.53;;;-140.79;100.00
62705;BME280;48767;50.754;8.772;2022-08-07T12:19:16;60546.53;;;-140.79;100.00
62705;BME280;48767;50.754;8.772;2022-08-07T12:21:52;60546.53;;;-140.79;100.00
62705;BME280;48767;50.754;8.772;2022-08-07T12:24:26;60546.53;;;-140.79;100.00
62705;BME280;48767;50.754;8.772;2022-08-07T12:27:00;60546.53;;;-140.79;100.00
62705;BME280;48767;50.754;8.772;2022-08-07T12:29:31;60546.53;;;-140.79;100.00
62705;BME280;48767;50.754;8.772;2022-08-07T12:32:04;60546.53;;;-140.79;100.00
62705;BME280;48767;50.754;8.772;2022-08-07T12:34:34;60546.53;;;-140.79;100.00
62705;BME280;48767;50.754;8.772;2022-08-07T12:37:04;60546.53;;;-140.79;100.00
62705;BME280;48767;50.754;8.772;2022-08-07T12:39:33;60546.53;;;-140.79;100.00
62705;BME280;48767;50.754;8.772;2022-08-07T12:42:02;60546.53;;;-140.79;100.00
62705;BME280;48767;50.754;8.772;2022-08-07T12:44:30;60546.53;;;-140.79;100.00
62705;BME280;48767;50.754;8.772;2022-08-07T12:47:08;60546.53;;;-140.79;100.00
62705;BME280;48767;50.754;8.772;2022-08-07T12:49:43;60546.53;;;-140.79;100.00
62705;BME280;48767;50.754;8.772;2022-08-07T12:52:21;60546.53;;;-140.79;100.00
62705;BME280;48767;50.754;8.772;2022-08-07T12:54:59;60546.53;;;-140.79;100.00
62705;BME280;48767;50.754;8.772;2022-08-07T12:57:28;60546.53;;;-140.79;100.00
62705;BME280;48767;50.754;8.772;2022-08-07T12:59:58;60546.53;;;-140.79;100.00
62705;BME280;48767;50.754;8.772;2022-08-07T13:02:38;60546.53;;;-140.79;100.00
62705;BME280;48767;50.754;8.772;2022-08-07T13:05:17;60546.53;;;-140.79;100.00
62705;BME280;48767;50.754;8.772;2022-08-07T13:08:16;60546.53;;;-140.79;100.00
62705;BME280;48767;50.754;8.772;2022-08-07T13:10:53;60546.53;;;-140.79;100.00
62705;BME280;48767;50.754;8.772;2022-08-07T13:13:31;60546.53;;;-140.79;100.00
62705;BME280;48767;50.754;8.772;2022-08-07T13:16:03;60546.53;;;-140.79;100.00
62705;BME280;48767;50.754;8.772;2022-08-07T13:18:36;60546.53;;;-140.79;100.00
62705;BME280;48767;50.754;8.772;2022-08-07T13:21:11;60546.53;;;-140.79;100.00
62705;BME280;48767;50.754;8.772;2022-08-07T13:23:46;60546.53;;;-140.79;100.00
62705;BME280;48767;50.754;8.772;2022-08-07T13:26:20;60546.53;;;-140.79;100.00
62705;BME280;48767;50.754;8.772;2022-08-07T13:28:54;60546.53;;;-140.79;100.00
62705;BME280;48767;50.754;8.772;2022-08-07T13:31:29;60546.53;;;-140.79;100.00
62705;BME280;48767;50.754;8.772;2022-08-07T13:33:59;60546.53;;;-140.79;100.00
62705;BME280;48767;50.754;8.772;2022-08-07T13:36:31;60546.53;;;-140.79;100.00